createdAt,value
2022-09-09T00:02:17.494Z,85
2022-09-09T00:05:42.645Z,84
2022-09-09T00:09:07.894Z,84
2022-09-09T00:12:33.138Z,84
2022-09-09T00:15:58.372Z,84
2022-09-09T00:19:23.635Z,84
2022-09-09T00:22:48.888Z,85
2022-09-09T00:26:14.133Z,84
2022-09-09T00:29:39.388Z,83
2022-09-09T00:33:04.619Z,83
2022-09-09T00:36:29.853Z,83
2022-09-09T00:39:55.145Z,83
2022-09-09T00:43:20.375Z,83
2022-09-09T00:46:45.620Z,83
2022-09-09T00:50:10.843Z,83
2022-09-09T00:53:36.088Z,83
2022-09-09T00:57:01.360Z,83
2022-09-09T01:00:26.599Z,83
2022-09-09T01:03:51.847Z,83
2022-09-09T01:07:17.042Z,83
2022-09-09T01:10:42.282Z,83
2022-09-09T01:14:07.534Z,83
2022-09-09T01:17:32.783Z,83
2022-09-09T01:20:58.029Z,83
2022-09-09T01:24:23.268Z,83
2022-09-09T01:27:48.501Z,83
2022-09-09T01:31:13.807Z,83
2022-09-09T01:34:38.985Z,83
2022-09-09T01:38:04.258Z,83
2022-09-09T01:41:29.480Z,84
2022-09-09T01:44:54.735Z,83
2022-09-09T01:48:20.019Z,83
2022-09-09T01:51:45.262Z,83
2022-09-09T01:55:10.539Z,83
2022-09-09T01:58:35.866Z,83
2022-09-09T02:02:01.034Z,84
2022-09-09T02:05:26.234Z,83
2022-09-09T02:08:51.488Z,83
2022-09-09T02:12:16.747Z,83
2022-09-09T02:15:41.963Z,82
2022-09-09T02:19:07.178Z,83
2022-09-09T02:22:32.423Z,83
2022-09-09T02:25:57.667Z,83
2022-09-09T02:29:22.926Z,83
2022-09-09T02:32:48.141Z,84
2022-09-09T02:36:13.930Z,83
2022-09-09T02:39:39.201Z,83
2022-09-09T02:43:04.401Z,83
2022-09-09T02:46:29.683Z,84
2022-09-09T02:49:54.873Z,84
2022-09-09T02:53:20.122Z,84
2022-09-09T02:56:45.354Z,85
2022-09-09T03:00:10.602Z,85
2022-09-09T03:03:35.840Z,85
2022-09-09T03:07:01.084Z,86
2022-09-09T03:10:26.297Z,86
2022-09-09T03:13:51.544Z,86
2022-09-09T03:17:16.781Z,86
2022-09-09T03:20:42.009Z,86
2022-09-09T03:24:07.219Z,85
2022-09-09T03:27:32.469Z,86
2022-09-09T03:30:57.712Z,86
2022-09-09T03:34:22.982Z,86
2022-09-09T03:37:48.252Z,86
2022-09-09T03:41:13.432Z,86
2022-09-09T03:44:38.657Z,85
2022-09-09T03:48:03.906Z,85
2022-09-09T03:51:29.146Z,85
2022-09-09T03:54:54.404Z,85
2022-09-09T03:58:19.643Z,85
2022-09-09T04:01:44.944Z,85
2022-09-09T04:05:10.115Z,85
2022-09-09T04:08:35.638Z,85
2022-09-09T04:12:00.635Z,84
2022-09-09T04:15:25.867Z,84
2022-09-09T04:18:51.108Z,85
2022-09-09T04:22:16.358Z,85
2022-09-09T04:25:41.589Z,85
2022-09-09T04:29:06.841Z,85
2022-09-09T04:32:32.101Z,85
2022-09-09T04:35:57.395Z,85
2022-09-09T04:39:22.615Z,85
2022-09-09T04:42:47.864Z,85
2022-09-09T04:46:13.219Z,85
2022-09-09T04:49:38.358Z,85
2022-09-09T04:53:03.519Z,85
2022-09-09T04:56:28.696Z,85
2022-09-09T04:59:53.974Z,85
2022-09-09T05:03:19.164Z,84
2022-09-09T05:06:44.376Z,84
2022-09-09T05:10:09.594Z,84
2022-09-09T05:13:37.345Z,84
2022-09-09T05:16:59.916Z,84
2022-09-09T05:20:25.130Z,84
2022-09-09T05:23:50.264Z,84
2022-09-09T05:27:15.498Z,84
2022-09-09T05:30:40.687Z,83
2022-09-09T05:34:05.900Z,84
2022-09-09T05:37:31.121Z,85
2022-09-09T05:40:56.288Z,86
2022-09-09T05:44:21.472Z,85
2022-09-09T05:47:46.662Z,85
2022-09-09T05:51:11.857Z,85
2022-09-09T05:54:37.079Z,85
2022-09-09T05:58:02.234Z,85
2022-09-09T06:01:27.433Z,85
2022-09-09T06:04:52.635Z,85
2022-09-09T06:08:17.850Z,85
2022-09-09T06:11:43.123Z,86
2022-09-09T06:15:08.275Z,86
2022-09-09T06:18:33.557Z,86
2022-09-09T06:21:58.680Z,86
2022-09-09T06:25:23.911Z,86
2022-09-09T06:28:49.146Z,86
2022-09-09T06:32:14.355Z,86
2022-09-09T06:35:39.540Z,87
2022-09-09T06:39:04.751Z,86
2022-09-09T06:42:29.981Z,85
2022-09-09T06:45:55.197Z,85
2022-09-09T06:49:20.407Z,85
2022-09-09T06:52:45.567Z,85
2022-09-09T06:56:12.783Z,85
2022-09-09T06:59:35.956Z,86
2022-09-09T07:03:01.181Z,87
2022-09-09T07:06:26.323Z,87
2022-09-09T07:09:51.522Z,88
2022-09-09T07:13:16.735Z,87
2022-09-09T07:16:41.944Z,87
2022-09-09T07:20:07.177Z,87
2022-09-09T07:23:36.110Z,87
2022-09-09T07:26:57.557Z,87
2022-09-09T07:30:27.007Z,87
2022-09-09T07:33:48.010Z,87
2022-09-09T07:37:13.224Z,86
2022-09-09T07:40:38.444Z,86
2022-09-09T07:44:03.622Z,86
2022-09-09T07:47:28.845Z,85
2022-09-09T07:50:54.101Z,86
2022-09-09T07:54:19.311Z,85
2022-09-09T07:57:44.519Z,84
2022-09-09T08:01:09.744Z,84
2022-09-09T08:04:34.961Z,84
2022-09-09T08:08:00.169Z,83
2022-09-09T08:11:25.453Z,83
2022-09-09T08:14:50.614Z,84
2022-09-09T08:18:15.792Z,84
2022-09-09T08:21:41.043Z,83
2022-09-09T08:25:06.278Z,82
2022-09-09T08:28:31.586Z,83
2022-09-09T08:31:56.773Z,83
2022-09-09T08:35:21.979Z,81
2022-09-09T08:38:47.191Z,81
2022-09-09T08:42:12.341Z,81
2022-09-09T08:45:37.545Z,81
2022-09-09T08:49:02.698Z,80
2022-09-09T08:52:27.912Z,81
2022-09-09T08:55:53.146Z,81
2022-09-09T08:59:18.326Z,82
2022-09-09T09:02:43.518Z,81
2022-09-09T09:06:08.733Z,82
2022-09-09T09:09:33.953Z,83
2022-09-09T09:12:59.171Z,84
2022-09-09T09:16:24.426Z,84
2022-09-09T09:19:49.618Z,82
2022-09-09T09:23:14.881Z,83
2022-09-09T09:26:40.111Z,82
2022-09-09T09:30:24.129Z,82
2022-09-09T09:33:30.579Z,81
2022-09-09T09:36:55.867Z,82
2022-09-09T09:40:21.165Z,82
2022-09-09T09:43:46.404Z,82
2022-09-09T09:47:11.624Z,82
2022-09-09T09:50:36.904Z,82
2022-09-09T09:54:02.203Z,81
2022-09-09T09:57:27.411Z,82
2022-09-09T10:00:52.668Z,79
2022-09-09T10:04:17.906Z,79
2022-09-09T10:07:43.113Z,77
2022-09-09T10:11:08.372Z,77
2022-09-09T10:14:33.576Z,74
2022-09-09T10:17:58.792Z,74
2022-09-09T10:21:24.021Z,74
2022-09-09T10:24:49.243Z,77
2022-09-09T10:28:14.508Z,75
2022-09-09T10:31:39.789Z,73
2022-09-09T10:35:05.010Z,73
2022-09-09T10:38:30.233Z,74
2022-09-09T10:41:55.418Z,75
2022-09-09T10:45:20.633Z,77
2022-09-09T10:48:45.772Z,77
2022-09-09T10:52:10.941Z,76
2022-09-09T10:55:36.143Z,76
2022-09-09T10:59:01.356Z,77
2022-09-09T11:02:26.570Z,76
2022-09-09T11:05:51.729Z,75
2022-09-09T11:09:16.946Z,75
2022-09-09T11:12:42.147Z,72
2022-09-09T11:16:07.350Z,71
2022-09-09T11:19:32.574Z,71
2022-09-09T11:22:57.781Z,69
2022-09-09T11:26:22.920Z,67
2022-09-09T11:29:48.110Z,68
2022-09-09T11:33:13.317Z,68
2022-09-09T11:36:38.524Z,70
2022-09-09T11:40:03.738Z,72
2022-09-09T11:43:28.870Z,70
2022-09-09T11:46:54.081Z,72
2022-09-09T11:50:19.286Z,69
2022-09-09T11:53:44.517Z,70
2022-09-09T11:57:09.693Z,70
2022-09-09T12:00:34.907Z,70
2022-09-09T12:04:00.161Z,70
2022-09-09T12:07:25.305Z,70
2022-09-09T12:10:50.533Z,72
2022-09-09T12:14:15.689Z,70
2022-09-09T12:17:40.909Z,69
2022-09-09T12:21:06.195Z,66
2022-09-09T12:24:31.372Z,66
2022-09-09T12:27:56.575Z,67
2022-09-09T12:31:21.775Z,65
2022-09-09T12:34:46.955Z,65
2022-09-09T12:38:12.136Z,66
2022-09-09T12:41:37.460Z,65
2022-09-09T12:45:02.665Z,66
2022-09-09T12:48:27.883Z,67
2022-09-09T12:51:53.082Z,67
2022-09-09T12:55:18.280Z,68
2022-09-09T12:58:44.284Z,68
2022-09-09T13:02:09.578Z,69
2022-09-09T13:05:34.714Z,69
2022-09-09T13:08:59.947Z,67
2022-09-09T13:12:25.154Z,68
2022-09-09T13:15:50.451Z,69
2022-09-09T13:19:18.879Z,70
2022-09-09T13:22:44.712Z,70
2022-09-09T13:26:11.295Z,71
2022-09-09T13:29:41.365Z,69
2022-09-09T13:33:07.872Z,70
2022-09-09T13:43:37.092Z,80
2022-09-09T13:47:02.830Z,84
2022-09-09T13:50:27.430Z,86
2022-09-09T13:53:52.680Z,84
2022-09-09T13:57:17.897Z,86
2022-09-09T14:00:43.114Z,86
2022-09-09T14:04:08.282Z,85
2022-09-09T14:07:33.806Z,84
2022-09-09T14:10:59.000Z,84
2022-09-09T14:14:24.213Z,83
2022-09-09T14:17:49.404Z,81
2022-09-09T14:21:14.601Z,83
2022-09-09T14:24:39.768Z,82
2022-09-09T14:28:04.979Z,81
2022-09-09T15:04:59.016Z,75
2022-09-09T15:08:24.189Z,75
2022-09-09T15:11:49.383Z,76
2022-09-09T15:15:14.560Z,78
2022-09-09T15:18:39.736Z,78
2022-09-09T15:22:04.954Z,76
2022-09-09T15:25:30.120Z,75
2022-09-09T15:28:55.322Z,75
2022-09-09T15:32:20.521Z,76
2022-09-09T15:35:45.732Z,74
2022-09-09T15:39:10.949Z,74
2022-09-09T15:42:36.184Z,74
2022-09-09T15:46:01.474Z,74
2022-09-09T15:49:26.665Z,75
2022-09-09T15:52:51.767Z,74
2022-09-09T15:56:16.975Z,74
2022-09-09T15:59:42.141Z,73
2022-09-09T16:03:07.301Z,73
2022-09-09T16:06:32.460Z,70
2022-09-09T16:09:57.652Z,72
2022-09-09T16:13:22.828Z,73
2022-09-09T16:16:48.029Z,73
2022-09-09T16:20:13.503Z,72
2022-09-09T16:23:39.114Z,72
2022-09-09T16:27:04.324Z,74
2022-09-09T16:30:29.515Z,77
2022-09-09T16:33:54.713Z,77
2022-09-09T16:37:19.909Z,79
2022-09-09T16:40:45.081Z,79
2022-09-09T16:44:10.373Z,77
2022-09-09T16:47:35.708Z,77
2022-09-09T16:51:00.910Z,79
2022-09-09T16:54:26.132Z,79
2022-09-09T16:57:51.383Z,81
2022-09-09T17:01:16.683Z,81
2022-09-09T17:04:41.949Z,81
2022-09-09T17:08:07.188Z,81
2022-09-09T17:11:32.481Z,81
2022-09-09T17:14:57.779Z,81
2022-09-09T17:18:22.946Z,81
2022-09-09T17:22:22.085Z,82
2022-09-09T17:25:13.402Z,81
2022-09-09T17:28:38.663Z,81
2022-09-09T17:32:03.931Z,81
2022-09-09T17:35:29.110Z,82
2022-09-09T17:38:54.316Z,83
2022-09-09T17:42:19.474Z,83
2022-09-09T17:45:44.719Z,83
2022-09-09T17:49:09.982Z,83
2022-09-09T17:52:35.137Z,83
2022-09-09T17:56:00.352Z,83
2022-09-09T17:59:25.556Z,82
2022-09-09T18:02:50.909Z,82
2022-09-09T18:06:16.039Z,81
2022-09-09T18:09:41.227Z,77
2022-09-09T18:13:06.458Z,79
2022-09-09T18:16:31.710Z,81
2022-09-09T18:19:56.906Z,84
2022-09-09T18:23:22.138Z,85
2022-09-09T18:26:47.396Z,86
2022-09-09T18:30:12.634Z,86
2022-09-09T18:33:37.834Z,87
2022-09-09T18:37:03.094Z,88
2022-09-09T18:40:28.338Z,88
2022-09-09T18:43:53.570Z,87
2022-09-09T18:47:18.816Z,87
2022-09-09T18:50:44.041Z,88
2022-09-09T18:54:09.269Z,88
2022-09-09T18:57:36.438Z,88
2022-09-09T19:00:59.867Z,89
2022-09-09T19:04:25.027Z,89
2022-09-09T19:07:50.191Z,89
2022-09-09T19:11:15.420Z,89
2022-09-09T19:14:40.679Z,89
2022-09-09T19:18:06.102Z,89
2022-09-09T19:21:31.149Z,89
2022-09-09T19:24:56.396Z,89
2022-09-09T19:28:21.639Z,88
2022-09-09T19:32:02.171Z,87
2022-09-09T19:35:12.076Z,87
2022-09-09T19:38:37.440Z,87
2022-09-09T19:42:02.584Z,87
2022-09-09T19:45:27.826Z,86
2022-09-09T19:48:53.088Z,87
2022-09-09T19:52:18.311Z,87
2022-09-09T19:55:43.599Z,87
2022-09-09T19:59:09.449Z,87
2022-09-09T20:02:34.169Z,88
2022-09-09T20:05:59.300Z,87
2022-09-09T20:09:24.536Z,86
2022-09-09T20:12:49.848Z,87
2022-09-09T20:16:15.079Z,87
2022-09-09T20:19:40.265Z,87
2022-09-09T20:23:05.462Z,89
2022-09-09T20:26:30.774Z,88
2022-09-09T20:29:56.071Z,89
2022-09-09T20:33:21.351Z,89
2022-09-09T20:36:46.587Z,89
2022-09-09T20:40:11.853Z,89
2022-09-09T20:43:37.054Z,89
2022-09-09T20:47:02.296Z,89
2022-09-09T20:50:27.496Z,89
2022-09-09T20:53:52.732Z,88
2022-09-09T20:57:17.971Z,88
2022-09-09T21:00:43.225Z,89
2022-09-09T21:04:08.476Z,88
2022-09-09T21:07:33.676Z,88
2022-09-09T21:10:58.939Z,88
2022-09-09T21:14:24.145Z,88
2022-09-09T21:17:49.332Z,88
2022-09-09T21:21:14.617Z,87
2022-09-09T21:24:39.845Z,88
2022-09-09T21:28:05.054Z,88
2022-09-09T21:31:30.305Z,88
2022-09-09T21:34:55.526Z,88
2022-09-09T21:38:20.781Z,88
2022-09-09T21:41:45.991Z,88
2022-09-09T21:45:11.225Z,88
2022-09-09T21:48:36.491Z,88
2022-09-09T21:52:01.709Z,88
2022-09-09T21:55:27.048Z,88
2022-09-09T21:58:52.211Z,88
2022-09-09T22:02:17.557Z,88
2022-09-09T22:05:42.668Z,88
2022-09-09T22:09:07.910Z,88
2022-09-09T22:12:33.171Z,88
2022-09-09T22:15:58.436Z,88
2022-09-09T22:19:23.633Z,88
2022-09-09T22:22:48.847Z,88
2022-09-09T22:26:14.084Z,88
2022-09-09T22:29:39.367Z,88
2022-09-09T22:33:04.584Z,88
2022-09-09T22:36:29.809Z,88
2022-09-09T22:39:55.064Z,88
2022-09-09T22:43:20.290Z,88
2022-09-09T22:46:45.626Z,88
2022-09-09T22:50:10.787Z,87
2022-09-09T22:53:35.953Z,88
2022-09-09T22:57:01.204Z,88
2022-09-09T23:00:26.431Z,88
2022-09-09T23:03:51.680Z,88
2022-09-09T23:07:16.792Z,88
2022-09-09T23:10:42.056Z,88
2022-09-09T23:14:07.286Z,88
2022-09-09T23:17:32.474Z,89
2022-09-09T23:20:57.752Z,89
2022-09-09T23:24:22.919Z,89
2022-09-09T23:27:48.134Z,88
2022-09-09T23:31:13.404Z,88
2022-09-09T23:34:38.580Z,88
2022-09-09T23:38:03.781Z,88
2022-09-09T23:41:28.958Z,88
2022-09-09T23:44:54.255Z,88
2022-09-09T23:48:19.462Z,88
2022-09-09T23:51:44.673Z,88
2022-09-09T23:55:09.924Z,88
2022-09-09T23:58:35.194Z,88
